createdAt,value
2022-08-07T00:01:44.121Z,2.70
2022-08-07T00:04:15.633Z,3.30
2022-08-07T00:06:51.415Z,2.88
2022-08-07T00:09:21.246Z,2.80
2022-08-07T00:11:55.982Z,3.13
2022-08-07T00:14:30.503Z,2.42
2022-08-07T00:16:59.975Z,2.13
2022-08-07T00:19:59.657Z,2.58
2022-08-07T00:22:24.690Z,2.88
2022-08-07T00:25:05.194Z,3.08
2022-08-07T00:27:51.918Z,2.90
2022-08-07T00:30:26.757Z,3.00
2022-08-07T00:33:07.745Z,2.97
2022-08-07T00:35:35.339Z,2.72
2022-08-07T00:38:04.460Z,2.80
2022-08-07T00:40:36.655Z,3.20
2022-08-07T00:43:09.913Z,2.97
2022-08-07T00:45:46.446Z,2.95
2022-08-07T00:48:13.933Z,2.72
2022-08-07T00:50:46.265Z,2.55
2022-08-07T00:53:20.235Z,3.05
2022-08-07T00:56:03.082Z,3.15
2022-08-07T00:58:32.384Z,2.92
2022-08-07T01:00:59.636Z,3.30
2022-08-07T01:03:56.941Z,3.38
2022-08-07T01:06:14.234Z,2.40
2022-08-07T01:08:53.038Z,3.10
2022-08-07T01:12:09.539Z,2.90
2022-08-07T01:14:10.112Z,3.10
2022-08-07T01:16:37.836Z,2.97
2022-08-07T01:19:18.245Z,2.45
2022-08-07T01:21:50.046Z,2.95
2022-08-07T01:24:22.755Z,3.33
2022-08-07T01:26:51.592Z,3.40
2022-08-07T01:29:27.956Z,2.75
2022-08-07T01:32:01.292Z,2.90
2022-08-07T01:34:33.798Z,3.00
2022-08-07T01:37:13.541Z,3.10
2022-08-07T01:39:46.925Z,2.90
2022-08-07T01:42:39.610Z,2.83
2022-08-07T01:45:22.864Z,2.83
2022-08-07T01:48:29.654Z,3.38
2022-08-07T01:50:50.692Z,3.08
2022-08-07T01:53:46.391Z,3.08
2022-08-07T01:56:13.506Z,3.10
2022-08-07T01:58:45.215Z,3.33
2022-08-07T02:01:58.862Z,3.13
2022-08-07T02:04:09.008Z,3.10
2022-08-07T02:06:38.794Z,3.50
2022-08-07T02:09:08.336Z,3.08
2022-08-07T02:12:03.075Z,2.90
2022-08-07T02:14:40.215Z,3.25
2022-08-07T02:17:24.797Z,3.42
2022-08-07T02:20:07.120Z,3.20
2022-08-07T02:22:43.774Z,3.22
2022-08-07T02:25:17.389Z,3.13
2022-08-07T02:27:55.294Z,3.80
2022-08-07T02:30:22.697Z,2.88
2022-08-07T02:33:03.882Z,3.53
2022-08-07T02:36:30.214Z,3.50
2022-08-07T02:38:32.873Z,3.13
2022-08-07T02:41:04.298Z,3.70
2022-08-07T02:43:35.499Z,3.53
2022-08-07T02:46:07.045Z,3.25
2022-08-07T02:48:36.760Z,3.20
2022-08-07T02:51:28.993Z,3.65
2022-08-07T02:54:01.252Z,3.38
2022-08-07T02:56:31.489Z,4.00
2022-08-07T02:59:00.962Z,3.35
2022-08-07T03:01:35.434Z,3.45
2022-08-07T03:04:13.047Z,3.70
2022-08-07T03:06:48.094Z,3.70
2022-08-07T03:09:41.879Z,3.30
2022-08-07T03:12:06.728Z,3.20
2022-08-07T03:14:37.865Z,3.13
2022-08-07T03:17:08.988Z,3.60
2022-08-07T03:19:39.447Z,3.42
2022-08-07T03:22:18.552Z,3.65
2022-08-07T03:24:47.713Z,3.28
2022-08-07T03:27:15.569Z,3.15
2022-08-07T03:30:03.893Z,3.38
2022-08-07T03:32:34.727Z,3.30
2022-08-07T03:35:17.685Z,3.67
2022-08-07T03:37:53.967Z,3.35
2022-08-07T03:40:27.456Z,2.90
2022-08-07T03:43:00.718Z,3.63
2022-08-07T03:45:30.886Z,3.35
2022-08-07T03:48:09.993Z,3.40
2022-08-07T03:50:39.162Z,2.97
2022-08-07T03:53:18.241Z,3.20
2022-08-07T03:55:57.413Z,3.35
2022-08-07T03:59:08.084Z,2.92
2022-08-07T04:01:22.429Z,3.30
2022-08-07T04:03:55.119Z,3.58
2022-08-07T04:06:36.328Z,3.35
2022-08-07T04:09:15.639Z,3.13
2022-08-07T04:12:23.598Z,3.53
2022-08-07T04:14:38.531Z,4.05
2022-08-07T04:17:19.770Z,3.55
2022-08-07T04:19:54.464Z,3.25
2022-08-07T04:22:29.253Z,3.05
2022-08-07T04:27:35.536Z,3.47
2022-08-07T04:30:11.875Z,3.45
2022-08-07T04:32:58.322Z,3.13
2022-08-07T04:35:35.531Z,3.45
2022-08-07T04:38:07.972Z,3.95
2022-08-07T04:40:52.176Z,3.67
2022-08-07T04:44:10.555Z,3.97
2022-08-07T04:46:35.957Z,3.17
2022-08-07T04:49:41.690Z,3.50
2022-08-07T04:52:33.574Z,2.92
2022-08-07T04:58:23.767Z,3.65
2022-08-07T04:58:42.276Z,2.92
2022-08-07T05:01:18.196Z,3.30
2022-08-07T05:04:06.704Z,3.22
2022-08-07T05:06:53.526Z,3.22
2022-08-07T05:09:45.323Z,3.50
2022-08-07T05:12:26.901Z,2.95
2022-08-07T05:15:21.689Z,3.10
2022-08-07T05:18:08.511Z,4.07
2022-08-07T05:20:42.858Z,3.28
2022-08-07T05:23:29.011Z,3.30
2022-08-07T05:26:13.771Z,3.30
2022-08-07T05:28:49.979Z,3.50
2022-08-07T05:31:22.290Z,3.75
2022-08-07T05:34:04.534Z,3.22
2022-08-07T05:36:39.200Z,4.18
2022-08-07T05:40:06.348Z,3.38
2022-08-07T05:42:06.437Z,3.65
2022-08-07T05:44:46.630Z,3.65
2022-08-07T05:47:38.163Z,3.40
2022-08-07T05:50:14.851Z,3.78
2022-08-07T05:52:42.482Z,3.80
2022-08-07T05:55:10.866Z,3.42
2022-08-07T05:57:42.385Z,3.80
2022-08-07T06:00:16.487Z,3.63
2022-08-07T06:02:54.024Z,3.72
2022-08-07T06:05:28.514Z,3.28
2022-08-07T06:08:14.034Z,3.83
2022-08-07T06:10:51.278Z,3.88
2022-08-07T06:14:10.654Z,3.85
2022-08-07T06:16:10.358Z,4.22
2022-08-07T06:18:43.011Z,3.80
2022-08-07T06:22:14.256Z,3.70
2022-08-07T06:24:38.584Z,4.00
2022-08-07T06:26:46.255Z,3.13
2022-08-07T06:29:14.025Z,3.05
2022-08-07T06:31:49.658Z,3.33
2022-08-07T06:34:23.232Z,3.55
2022-08-07T06:36:51.876Z,3.40
2022-08-07T06:42:14.508Z,2.90
2022-08-07T06:44:54.920Z,3.17
2022-08-07T06:47:24.264Z,2.97
2022-08-07T06:49:58.228Z,3.08
2022-08-07T06:52:35.546Z,3.20
2022-08-07T06:55:34.342Z,3.35
2022-08-07T06:58:10.304Z,3.17
2022-08-07T07:00:46.196Z,3.22
2022-08-07T07:03:16.990Z,3.20
2022-08-07T07:06:03.343Z,3.03
2022-08-07T07:08:33.485Z,3.08
2022-08-07T07:11:13.791Z,3.28
2022-08-07T07:13:57.420Z,2.70
2022-08-07T07:16:34.020Z,2.65
2022-08-07T07:19:34.114Z,2.40
2022-08-07T07:22:11.900Z,2.40
2022-08-07T07:25:03.060Z,2.67
2022-08-07T07:27:35.882Z,2.83
2022-08-07T07:30:32.602Z,4.82
2022-08-07T07:33:07.778Z,2.58
2022-08-07T07:38:25.866Z,2.53
2022-08-07T07:41:02.397Z,2.70
2022-08-07T07:43:47.916Z,2.75
2022-08-07T07:46:36.484Z,2.47
2022-08-07T07:50:36.533Z,2.70
2022-08-07T07:51:58.056Z,2.67
2022-08-07T07:54:27.471Z,2.85
2022-08-07T07:56:55.326Z,2.78
2022-08-07T07:59:52.703Z,2.58
2022-08-07T08:02:34.260Z,1.80
2022-08-07T08:05:14.196Z,2.15
2022-08-07T08:07:59.817Z,2.40
2022-08-07T08:10:37.699Z,2.40
2022-08-07T08:13:07.343Z,2.00
2022-08-07T08:15:57.608Z,2.50
2022-08-07T08:18:29.220Z,2.70
2022-08-07T08:21:00.138Z,2.28
2022-08-07T08:23:49.290Z,2.45
2022-08-07T08:26:36.428Z,2.83
2022-08-07T08:32:17.238Z,2.65
2022-08-07T08:34:33.540Z,2.60
2022-08-07T08:37:00.959Z,2.45
2022-08-07T08:39:39.425Z,2.70
2022-08-07T08:42:22.236Z,2.30
2022-08-07T08:45:14.063Z,2.50
2022-08-07T08:47:52.533Z,2.40
2022-08-07T08:50:38.874Z,2.60
2022-08-07T08:53:32.365Z,2.50
2022-08-07T08:56:26.017Z,2.40
2022-08-07T08:59:13.513Z,2.40
2022-08-07T09:02:10.640Z,2.90
2022-08-07T09:04:39.972Z,2.50
2022-08-07T09:07:15.973Z,2.58
2022-08-07T09:10:07.894Z,1.92
2022-08-07T09:12:53.479Z,2.08
2022-08-07T09:16:23.614Z,2.15
2022-08-07T09:18:47.270Z,1.90
2022-08-07T09:22:10.019Z,2.30
2022-08-07T09:24:58.935Z,2.13
2022-08-07T09:27:54.388Z,2.03
2022-08-07T09:30:27.936Z,2.20
2022-08-07T09:33:53.280Z,1.90
2022-08-07T09:36:36.985Z,2.03
2022-08-07T09:39:53.234Z,2.10
2022-08-07T09:42:33.907Z,1.95
2022-08-07T09:47:23.589Z,2.08
2022-08-07T09:48:50.103Z,2.17
2022-08-07T09:52:10.360Z,1.98
2022-08-07T09:54:40.180Z,2.22
2022-08-07T09:57:12.861Z,2.15
2022-08-07T10:00:00.613Z,2.17
2022-08-07T10:02:55.656Z,2.00
2022-08-07T10:05:29.707Z,2.10
2022-08-07T10:08:25.232Z,2.08
2022-08-07T10:12:02.101Z,2.35
2022-08-07T10:14:30.488Z,2.10
2022-08-07T10:18:01.642Z,2.50
2022-08-07T10:21:02.693Z,2.00
2022-08-07T10:24:06.893Z,2.20
2022-08-07T10:27:11.163Z,1.88
2022-08-07T10:29:56.430Z,2.30
2022-08-07T10:35:55.527Z,2.40
2022-08-07T10:38:49.450Z,2.10
2022-08-07T10:41:47.437Z,2.45
2022-08-07T10:44:39.723Z,2.50
2022-08-07T10:47:14.035Z,2.17
2022-08-07T10:50:05.709Z,2.30
2022-08-07T10:52:51.143Z,2.38
2022-08-07T10:55:36.850Z,2.30
2022-08-07T10:58:33.360Z,2.30
2022-08-07T11:01:23.534Z,2.17
2022-08-07T11:04:34.638Z,2.20
2022-08-07T11:08:01.369Z,2.40
2022-08-07T11:10:40.728Z,3.05
2022-08-07T11:14:43.410Z,2.20
2022-08-07T11:16:51.135Z,2.10
2022-08-07T11:19:38.873Z,2.35
2022-08-07T11:22:37.107Z,2.35
2022-08-07T11:25:36.047Z,2.50
2022-08-07T11:28:28.613Z,2.20
2022-08-07T11:31:19.876Z,2.40
2022-08-07T11:34:00.368Z,2.28
2022-08-07T11:36:35.798Z,2.47
2022-08-07T11:40:00.504Z,2.42
2022-08-07T11:42:46.955Z,2.35
2022-08-07T11:45:36.145Z,2.60
2022-08-07T11:48:30.484Z,2.50
2022-08-07T11:51:44.640Z,2.33
2022-08-07T11:54:35.802Z,2.97
2022-08-07T11:58:00.093Z,2.67
2022-08-07T12:00:27.574Z,2.63
2022-08-07T12:03:44.763Z,2.97
2022-08-07T12:06:37.554Z,2.60
2022-08-07T12:09:16.140Z,2.70
2022-08-07T12:12:10.335Z,2.60
2022-08-07T12:14:52.721Z,2.78
2022-08-07T12:17:28.940Z,2.80
2022-08-07T12:20:10.339Z,3.08
2022-08-07T12:23:09.453Z,3.00
2022-08-07T12:26:05.760Z,3.17
2022-08-07T12:28:54.034Z,3.67
2022-08-07T12:32:03.667Z,3.10
2022-08-07T12:34:38.403Z,3.22
2022-08-07T12:37:08.635Z,3.17
2022-08-07T12:39:50.985Z,3.13
2022-08-07T12:42:27.579Z,3.00
2022-08-07T12:44:57.830Z,3.00
2022-08-07T12:47:30.859Z,3.22
2022-08-07T12:50:34.237Z,3.05
2022-08-07T12:53:22.402Z,3.35
2022-08-07T12:56:10.487Z,3.10
2022-08-07T12:58:43.886Z,2.70
2022-08-07T13:01:35.598Z,2.63
2022-08-07T13:04:33.998Z,2.97
2022-08-07T13:08:13.967Z,2.80
2022-08-07T13:10:52.305Z,2.47
2022-08-07T13:13:46.762Z,2.40
2022-08-07T13:16:40.520Z,2.47
2022-08-07T13:19:46.131Z,2.50
2022-08-07T13:22:27.515Z,4.32
2022-08-07T13:25:02.552Z,2.40
2022-08-07T13:28:11.272Z,2.40
2022-08-07T13:30:40.511Z,2.10
2022-08-07T13:34:34.616Z,2.03
2022-08-07T13:36:20.972Z,2.10
2022-08-07T13:39:12.700Z,2.20
2022-08-07T13:41:50.335Z,2.28
2022-08-07T13:44:34.637Z,1.73
2022-08-07T13:47:09.151Z,1.85
2022-08-07T13:50:35.435Z,1.80
2022-08-07T13:52:38.109Z,1.80
2022-08-07T13:55:19.462Z,1.63
2022-08-07T13:58:20.606Z,1.88
2022-08-07T14:00:57.930Z,2.00
2022-08-07T14:04:07.509Z,2.00
2022-08-07T14:06:30.996Z,1.90
2022-08-07T14:08:58.593Z,1.80
2022-08-07T14:11:53.796Z,1.88
2022-08-07T14:14:32.997Z,2.47
2022-08-07T14:17:13.002Z,2.10
2022-08-07T14:20:42.772Z,2.60
2022-08-07T14:22:51.661Z,2.28
2022-08-07T14:25:25.141Z,2.20
2022-08-07T14:28:11.750Z,2.28
2022-08-07T14:30:45.700Z,2.20
2022-08-07T14:33:15.077Z,2.40
2022-08-07T14:38:30.731Z,2.40
2022-08-07T14:41:12.312Z,2.20
2022-08-07T14:43:57.525Z,2.58
2022-08-07T14:49:58.142Z,2.65
2022-08-07T14:52:10.387Z,2.45
2022-08-07T14:54:41.954Z,2.40
2022-08-07T14:57:19.482Z,2.00
2022-08-07T15:00:06.485Z,2.50
2022-08-07T15:02:35.233Z,2.33
2022-08-07T15:05:19.793Z,2.40
2022-08-07T15:07:51.797Z,2.60
2022-08-07T15:10:25.036Z,2.72
2022-08-07T15:13:00.696Z,2.72
2022-08-07T15:15:53.511Z,2.50
2022-08-07T15:18:34.044Z,2.67
2022-08-07T15:21:43.882Z,3.65
2022-08-07T15:25:13.347Z,2.97
2022-08-07T15:27:24.162Z,2.67
2022-08-07T15:30:04.795Z,2.80
2022-08-07T15:32:50.859Z,2.97
2022-08-07T15:36:00.400Z,3.00
2022-08-07T15:38:30.985Z,3.08
2022-08-07T15:41:23.411Z,2.97
2022-08-07T15:44:05.076Z,2.83
2022-08-07T15:46:38.436Z,2.92
2022-08-07T15:49:14.636Z,2.83
2022-08-07T15:54:30.735Z,3.10
2022-08-07T15:57:02.333Z,3.10
2022-08-07T15:59:39.140Z,2.58
2022-08-07T16:02:21.535Z,3.08
2022-08-07T16:05:00.013Z,2.85
2022-08-07T16:08:32.778Z,3.03
2022-08-07T16:10:29.541Z,2.95
2022-08-07T16:13:57.781Z,2.70
2022-08-07T16:16:47.585Z,2.75
2022-08-07T16:19:59.343Z,3.05
2022-08-07T16:22:33.988Z,3.00
2022-08-07T16:25:54.717Z,2.70
2022-08-07T16:30:05.456Z,3.05
2022-08-07T16:31:51.046Z,2.90
2022-08-07T16:34:45.274Z,2.80
2022-08-07T16:38:04.656Z,2.90
2022-08-07T16:40:51.177Z,3.17
2022-08-07T16:44:02.265Z,3.20
2022-08-07T16:50:28.932Z,3.13
2022-08-07T16:52:55.402Z,2.90
2022-08-07T16:55:47.052Z,2.80
2022-08-07T16:59:11.363Z,3.20
2022-08-07T17:01:49.392Z,2.92
2022-08-07T17:04:50.885Z,3.50
2022-08-07T17:07:55.288Z,2.97
2022-08-07T17:10:54.284Z,6.78
2022-08-07T17:13:41.878Z,2.67
2022-08-07T17:16:25.237Z,3.75
2022-08-07T17:18:52.421Z,3.03
2022-08-07T17:21:51.141Z,3.22
2022-08-07T17:24:39.319Z,2.90
2022-08-07T17:27:22.674Z,3.10
2022-08-07T17:30:14.177Z,2.50
2022-08-07T17:34:10.195Z,3.20
2022-08-07T17:36:20.494Z,3.25
2022-08-07T17:39:00.764Z,2.70
2022-08-07T17:42:04.863Z,2.97
2022-08-07T17:44:34.014Z,3.22
2022-08-07T17:47:41.912Z,3.65
2022-08-07T17:53:00.932Z,3.33
2022-08-07T17:56:06.630Z,3.10
2022-08-07T17:58:57.103Z,3.00
2022-08-07T18:01:37.265Z,2.97
2022-08-07T18:04:31.260Z,3.10
2022-08-07T18:07:24.670Z,3.20
2022-08-07T18:10:29.080Z,3.00
2022-08-07T18:13:34.013Z,3.47
2022-08-07T18:16:08.242Z,3.28
2022-08-07T18:21:01.157Z,3.50
2022-08-07T18:21:57.747Z,3.50
2022-08-07T18:24:53.563Z,2.92
2022-08-07T18:27:51.119Z,3.00
2022-08-07T18:30:31.609Z,3.55
2022-08-07T18:33:34.333Z,3.33
2022-08-07T18:36:17.105Z,3.75
2022-08-07T18:40:06.833Z,3.35
2022-08-07T18:42:28.816Z,3.40
2022-08-07T18:45:43.783Z,3.17
2022-08-07T18:48:02.850Z,3.28
2022-08-07T18:50:48.257Z,3.75
2022-08-07T18:53:55.552Z,3.40
2022-08-07T18:57:29.594Z,3.00
2022-08-07T19:00:04.462Z,3.28
2022-08-07T19:02:55.506Z,3.30
2022-08-07T19:06:05.372Z,3.50
2022-08-07T19:08:49.583Z,3.95
2022-08-07T19:11:36.603Z,3.60
2022-08-07T19:14:19.906Z,3.70
2022-08-07T19:17:08.136Z,4.10
2022-08-07T19:20:07.197Z,4.13
2022-08-07T19:23:18.770Z,3.92
2022-08-07T19:26:25.249Z,3.75
2022-08-07T19:30:57.698Z,4.00
2022-08-07T19:31:57.691Z,4.20
2022-08-07T19:34:34.374Z,3.13
2022-08-07T19:37:09.918Z,3.70
2022-08-07T19:39:57.738Z,3.95
2022-08-07T19:45:09.500Z,4.00
2022-08-07T19:47:42.967Z,4.18
2022-08-07T19:50:41.299Z,3.97
2022-08-07T19:52:58.454Z,4.70
2022-08-07T19:55:56.463Z,4.55
2022-08-07T19:58:28.457Z,4.45
2022-08-07T20:00:57.300Z,4.00
2022-08-07T20:03:34.976Z,4.43
2022-08-07T20:06:04.417Z,4.28
2022-08-07T20:08:35.763Z,4.65
2022-08-07T20:11:09.552Z,4.25
2022-08-07T20:13:46.675Z,4.43
2022-08-07T20:16:35.754Z,4.20
2022-08-07T20:19:09.978Z,4.53
2022-08-07T20:21:42.092Z,4.05
2022-08-07T20:24:22.939Z,4.50
2022-08-07T20:26:54.641Z,4.63
2022-08-07T20:29:48.966Z,4.22
2022-08-07T20:32:23.137Z,5.25
2022-08-07T20:34:58.151Z,4.13
2022-08-07T20:37:46.875Z,4.60
2022-08-07T20:40:32.298Z,4.25
2022-08-07T20:43:02.741Z,4.15
2022-08-07T20:46:28.200Z,4.43
2022-08-07T20:48:28.550Z,4.63
2022-08-07T20:51:02.598Z,4.57
2022-08-07T20:54:04.742Z,4.32
2022-08-07T20:56:25.958Z,4.78
2022-08-07T20:58:55.703Z,4.55
2022-08-07T21:01:45.376Z,4.78
2022-08-07T21:04:22.897Z,4.40
2022-08-07T21:06:55.086Z,4.35
2022-08-07T21:09:51.934Z,4.65
2022-08-07T21:12:25.714Z,4.57
2022-08-07T21:14:57.070Z,6.18
2022-08-07T21:18:02.920Z,5.00
2022-08-07T21:20:18.919Z,4.82
2022-08-07T21:22:57.819Z,4.55
2022-08-07T21:26:01.351Z,4.72
2022-08-07T21:28:49.528Z,4.70
2022-08-07T21:32:43.033Z,5.00
2022-08-07T21:34:57.561Z,5.07
2022-08-07T21:37:57.970Z,5.15
2022-08-07T21:40:28.308Z,4.57
2022-08-07T21:43:10.731Z,5.10
2022-08-07T21:46:10.626Z,4.60
2022-08-07T21:48:57.556Z,4.45
2022-08-07T21:51:27.376Z,4.13
2022-08-07T21:54:21.551Z,4.32
2022-08-07T21:57:15.977Z,4.82
2022-08-07T22:00:19.181Z,4.55
2022-08-07T22:03:17.418Z,5.03
2022-08-07T22:05:54.704Z,5.60
2022-08-07T22:08:26.772Z,5.80
2022-08-07T22:11:02.666Z,5.18
2022-08-07T22:13:51.865Z,5.35
2022-08-07T22:16:42.597Z,5.45
2022-08-07T22:19:43.151Z,5.43
2022-08-07T22:22:28.743Z,5.47
2022-08-07T22:25:07.666Z,5.30
2022-08-07T22:28:15.135Z,5.65
2022-08-07T22:30:53.230Z,5.45
2022-08-07T22:33:52.749Z,5.82
2022-08-07T22:36:38.389Z,5.60
2022-08-07T22:39:17.000Z,5.63
2022-08-07T22:42:10.562Z,4.57
2022-08-07T22:44:58.852Z,5.55
2022-08-07T22:47:35.462Z,5.72
2022-08-07T22:50:04.328Z,5.63
2022-08-07T22:52:49.754Z,4.88
2022-08-07T22:55:38.362Z,5.45
2022-08-07T22:58:05.590Z,6.00
2022-08-07T23:00:59.506Z,4.63
2022-08-07T23:03:59.142Z,5.70
2022-08-07T23:06:51.867Z,5.53
2022-08-07T23:10:04.786Z,5.63
2022-08-07T23:12:34.297Z,5.60
2022-08-07T23:15:07.807Z,5.57
2022-08-07T23:17:59.504Z,5.65
2022-08-07T23:20:56.659Z,6.03
2022-08-07T23:24:05.888Z,6.10
2022-08-07T23:26:56.238Z,5.93
2022-08-07T23:30:35.635Z,5.75
2022-08-07T23:34:35.597Z,6.15
2022-08-07T23:37:20.106Z,5.70
2022-08-07T23:40:07.451Z,5.82
2022-08-07T23:42:40.260Z,5.13
2022-08-07T23:46:03.643Z,5.28
2022-08-07T23:48:47.043Z,5.40
2022-08-07T23:53:02.036Z,5.45
2022-08-07T23:54:36.305Z,5.47
2022-08-07T23:57:36.153Z,4.95
